createdAt,value
2022-09-06T00:00:09.474Z,99841.75
2022-09-06T00:02:42.104Z,99838.41
2022-09-06T00:05:11.243Z,99850.84
2022-09-06T00:07:39.606Z,99841.84
2022-09-06T00:10:08.372Z,99843.94
2022-09-06T00:12:36.656Z,99845.56
2022-09-06T00:15:05.640Z,99841.03
2022-09-06T00:17:34.179Z,99826.25
2022-09-06T00:20:04.684Z,99830.53
2022-09-06T00:22:32.945Z,99834.53
2022-09-06T00:25:01.154Z,99842.84
2022-09-06T00:27:29.418Z,99841.72
2022-09-06T00:29:57.618Z,99856.25
2022-09-06T00:32:25.871Z,99850.88
2022-09-06T00:34:54.040Z,99850.75
2022-09-06T00:37:23.565Z,99849.47
2022-09-06T00:39:51.751Z,99845.84
2022-09-06T00:42:19.968Z,99847.50
2022-09-06T00:44:48.177Z,99844.72
2022-09-06T00:47:16.454Z,99840.97
2022-09-06T00:49:47.431Z,99841.25
2022-09-06T00:52:17.109Z,99828.38
2022-09-06T00:54:46.899Z,99832.63
2022-09-06T00:57:15.652Z,99842.44
2022-09-06T00:59:43.799Z,99830.53
2022-09-06T01:02:12.255Z,99831.06
2022-09-06T01:04:43.103Z,99833.78
2022-09-06T01:07:16.445Z,99835.28
2022-09-06T01:09:58.004Z,99846.28
2022-09-06T01:12:35.593Z,99847.25
2022-09-06T01:15:12.531Z,99848.66
2022-09-06T01:17:51.530Z,99861.09
2022-09-06T01:20:52.018Z,99847.56
2022-09-06T01:24:14.502Z,99850.19
2022-09-06T01:27:35.166Z,99858.88
2022-09-06T01:30:08.944Z,99870.63
2022-09-06T01:32:43.151Z,99869.28
2022-09-06T01:35:18.748Z,99882.56
2022-09-06T01:37:48.041Z,99896.81
2022-09-06T01:40:16.409Z,99939.59
2022-09-06T01:42:44.636Z,100048.31
2022-09-06T01:45:16.365Z,100033.28
2022-09-06T01:47:51.234Z,100025.69
2022-09-06T01:50:59.791Z,100029.66
2022-09-06T01:53:48.889Z,100038.34
2022-09-06T01:56:23.526Z,100044.91
2022-09-06T01:59:31.768Z,100040.66
2022-09-06T02:02:05.076Z,100032.19
2022-09-06T02:04:37.328Z,100021.19
2022-09-06T02:07:10.600Z,100023.28
2022-09-06T02:09:41.053Z,100021.13
2022-09-06T02:12:09.646Z,100020.47
2022-09-06T02:14:40.388Z,100015.31
2022-09-06T02:17:10.693Z,100001.56
2022-09-06T02:19:41.080Z,99969.69
2022-09-06T02:22:11.438Z,99947.22
2022-09-06T02:24:40.695Z,99958.59
2022-09-06T02:27:08.982Z,99946.47
2022-09-06T02:29:37.175Z,99937.91
2022-09-06T02:32:31.615Z,99940.97
2022-09-06T02:34:59.818Z,99954.38
2022-09-06T02:37:28.008Z,99950.53
2022-09-06T02:39:56.417Z,99946.78
2022-09-06T02:42:24.757Z,99951.66
2022-09-06T02:44:52.967Z,99959.28
2022-09-06T02:47:21.158Z,99968.25
2022-09-06T02:49:50.697Z,99996.44
2022-09-06T02:52:18.824Z,100011.50
2022-09-06T02:54:47.080Z,100020.59
2022-09-06T02:57:15.256Z,100024.44
2022-09-06T02:59:43.463Z,100016.56
2022-09-06T03:02:11.619Z,99996.25
2022-09-06T03:04:39.877Z,99978.59
2022-09-06T03:07:09.420Z,99968.78
2022-09-06T03:09:37.652Z,99952.19
2022-09-06T03:12:06.238Z,99952.31
2022-09-06T03:14:35.993Z,99944.72
2022-09-06T03:17:04.560Z,99959.22
2022-09-06T03:19:32.866Z,99988.22
2022-09-06T03:22:01.102Z,99997.34
2022-09-06T03:24:30.691Z,99973.97
2022-09-06T03:26:58.906Z,99933.47
2022-09-06T03:29:27.187Z,99914.91
2022-09-06T03:31:55.421Z,99898.31
2022-09-06T03:34:23.599Z,99890.41
2022-09-06T03:36:51.744Z,99865.34
2022-09-06T03:39:21.222Z,99845.44
2022-09-06T03:41:50.830Z,99861.69
2022-09-06T03:44:19.050Z,99864.00
2022-09-06T03:46:47.312Z,99863.56
2022-09-06T03:49:15.540Z,99853.47
2022-09-06T03:51:43.706Z,99842.97
2022-09-06T03:54:11.887Z,99840.50
2022-09-06T03:56:40.136Z,99832.03
2022-09-06T03:59:09.698Z,99817.41
2022-09-06T04:01:37.927Z,99822.91
2022-09-06T04:04:06.166Z,99830.91
2022-09-06T04:06:34.331Z,99840.56
2022-09-06T04:09:02.541Z,99846.75
2022-09-06T04:11:30.706Z,99849.38
2022-09-06T04:13:58.875Z,99852.84
2022-09-06T04:16:28.550Z,99851.88
2022-09-06T04:18:59.951Z,99864.53
2022-09-06T04:21:28.195Z,99862.44
2022-09-06T04:23:56.644Z,99868.88
2022-09-06T04:26:24.861Z,99867.47
2022-09-06T04:28:53.125Z,99863.09
2022-09-06T04:31:21.310Z,99863.91
2022-09-06T04:33:50.884Z,99855.06
2022-09-06T04:36:19.024Z,99850.53
2022-09-06T04:38:47.424Z,99853.16
2022-09-06T04:41:17.191Z,99847.22
2022-09-06T04:43:45.454Z,99851.50
2022-09-06T04:46:20.060Z,99855.78
2022-09-06T04:48:49.790Z,99856.50
2022-09-06T04:51:17.998Z,99857.91
2022-09-06T04:53:46.243Z,99864.53
2022-09-06T04:56:17.012Z,99865.38
2022-09-06T04:58:45.756Z,99861.22
2022-09-06T05:01:14.024Z,99857.31
2022-09-06T05:03:42.238Z,99857.25
2022-09-06T05:06:13.125Z,99862.41
2022-09-06T05:08:41.979Z,99868.03
2022-09-06T05:11:10.953Z,99859.00
2022-09-06T05:13:39.360Z,99875.00
2022-09-06T05:16:08.988Z,99869.31
2022-09-06T05:18:37.533Z,99884.53
2022-09-06T05:21:06.158Z,99887.31
2022-09-06T05:23:35.836Z,99891.69
2022-09-06T05:26:04.377Z,99890.75
2022-09-06T05:28:32.597Z,99898.34
2022-09-06T05:31:08.876Z,99912.25
2022-09-06T05:33:37.023Z,99906.34
2022-09-06T05:36:05.955Z,99912.53
2022-09-06T05:38:35.453Z,99914.31
2022-09-06T05:41:03.647Z,99913.13
2022-09-06T05:43:31.840Z,99914.97
2022-09-06T05:46:00.214Z,99914.22
2022-09-06T05:48:29.754Z,99916.91
2022-09-06T05:51:03.671Z,99927.75
2022-09-06T05:53:37.926Z,99931.28
2022-09-06T05:56:06.682Z,99943.91
2022-09-06T05:58:34.933Z,99943.38
2022-09-06T06:01:16.213Z,99932.44
2022-09-06T06:03:44.869Z,99932.94
2022-09-06T06:06:13.043Z,99930.31
2022-09-06T06:08:42.794Z,99931.38
2022-09-06T06:11:11.011Z,99938.19
2022-09-06T06:13:39.707Z,99928.81
2022-09-06T06:16:08.416Z,99935.63
2022-09-06T06:18:36.835Z,99942.16
2022-09-06T06:21:10.275Z,99936.41
2022-09-06T06:23:38.478Z,99937.28
2022-09-06T06:26:08.802Z,99944.28
2022-09-06T06:28:37.307Z,99948.59
2022-09-06T06:31:05.914Z,99940.28
2022-09-06T06:33:36.207Z,99953.84
2022-09-06T06:36:06.867Z,99953.19
2022-09-06T06:38:36.211Z,99948.63
2022-09-06T06:41:06.803Z,99954.78
2022-09-06T06:43:37.739Z,99945.03
2022-09-06T06:46:06.496Z,99954.38
2022-09-06T06:48:34.892Z,99953.19
2022-09-06T06:51:03.406Z,99963.50
2022-09-06T06:53:32.727Z,99963.25
2022-09-06T06:56:01.354Z,99965.59
2022-09-06T06:58:30.185Z,99974.41
2022-09-06T07:00:59.942Z,99980.13
2022-09-06T07:03:28.242Z,99970.72
2022-09-06T07:06:12.655Z,99979.00
2022-09-06T07:08:41.572Z,99972.41
2022-09-06T07:11:10.927Z,99970.81
2022-09-06T07:13:39.183Z,99970.53
2022-09-06T07:16:15.077Z,99966.34
2022-09-06T07:18:43.689Z,99954.84
2022-09-06T07:24:09.012Z,99960.22
2022-09-06T07:26:39.165Z,99954.31
2022-09-06T07:29:08.357Z,99959.53
2022-09-06T07:34:27.284Z,99962.28
2022-09-06T07:36:55.690Z,99961.56
2022-09-06T07:39:24.055Z,99964.41
2022-09-06T07:41:52.341Z,99962.00
2022-09-06T07:44:20.604Z,99963.16
2022-09-06T07:46:52.680Z,99963.91
2022-09-06T07:49:21.024Z,99961.25
2022-09-06T07:51:49.318Z,99958.13
2022-09-06T07:54:33.054Z,99949.91
2022-09-06T07:57:01.233Z,99955.50
2022-09-06T07:59:29.468Z,99952.19
2022-09-06T08:01:59.153Z,99950.69
2022-09-06T08:04:27.356Z,99952.59
2022-09-06T08:09:45.397Z,99952.22
2022-09-06T08:12:13.663Z,99952.03
2022-09-06T08:14:41.904Z,99957.81
2022-09-06T08:17:11.456Z,99949.94
2022-09-06T08:19:52.202Z,99949.59
2022-09-06T08:22:26.842Z,99956.31
2022-09-06T08:24:55.059Z,99962.00
2022-09-06T08:27:23.273Z,99959.50
2022-09-06T08:29:51.486Z,99970.28
2022-09-06T08:32:21.118Z,99963.50
2022-09-06T08:34:49.641Z,99963.78
2022-09-06T08:37:20.934Z,99965.75
2022-09-06T08:39:51.343Z,99960.50
2022-09-06T08:42:19.624Z,99965.56
2022-09-06T08:44:58.293Z,99955.16
2022-09-06T08:47:28.609Z,99969.31
2022-09-06T08:49:57.916Z,99964.91
2022-09-06T08:53:15.752Z,99965.13
2022-09-06T08:55:42.445Z,99951.56
2022-09-06T08:58:38.857Z,99950.25
2022-09-06T09:01:09.573Z,99953.22
2022-09-06T09:03:40.211Z,99942.38
2022-09-06T09:06:10.100Z,99927.91
2022-09-06T09:08:44.255Z,99926.91
2022-09-06T09:11:16.395Z,99931.47
2022-09-06T09:13:55.484Z,99925.00
2022-09-06T09:16:24.330Z,99924.25
2022-09-06T09:18:55.926Z,99920.31
2022-09-06T09:21:30.493Z,99921.41
2022-09-06T09:24:04.263Z,99913.53
2022-09-06T09:26:36.690Z,99915.53
2022-09-06T09:29:07.337Z,99921.41
2022-09-06T09:31:37.261Z,99916.59
2022-09-06T09:34:07.036Z,99907.00
2022-09-06T09:36:35.201Z,99909.41
2022-09-06T09:39:03.497Z,99908.44
2022-09-06T09:41:33.601Z,99908.53
2022-09-06T09:44:04.897Z,99902.25
2022-09-06T09:46:34.024Z,99895.66
2022-09-06T09:49:06.957Z,99902.69
2022-09-06T09:51:38.190Z,99893.34
2022-09-06T09:54:07.739Z,99898.09
2022-09-06T09:56:43.447Z,99900.25
2022-09-06T09:59:22.111Z,99892.28
2022-09-06T10:01:50.600Z,99891.78
2022-09-06T10:07:13.111Z,99893.94
2022-09-06T10:09:42.379Z,99894.28
2022-09-06T10:12:16.312Z,99887.66
2022-09-06T10:14:45.840Z,99889.84
2022-09-06T10:17:22.428Z,99885.81
2022-09-06T10:19:51.923Z,99876.56
2022-09-06T10:22:44.841Z,99882.44
2022-09-06T10:25:39.511Z,99885.41
2022-09-06T10:28:32.861Z,99884.28
2022-09-06T10:31:38.016Z,99889.50
2022-09-06T10:34:26.936Z,99886.34
2022-09-06T10:37:04.056Z,99882.25
2022-09-06T10:39:40.305Z,99876.31
2022-09-06T10:42:14.703Z,99876.31
2022-09-06T10:44:57.149Z,99877.41
2022-09-06T10:47:27.967Z,99861.91
2022-09-06T10:49:57.180Z,99867.94
2022-09-06T10:52:29.096Z,99862.00
2022-09-06T10:55:02.121Z,99861.13
2022-09-06T11:00:22.589Z,99869.88
2022-09-06T11:05:45.767Z,99856.00
2022-09-06T11:11:18.133Z,99854.19
2022-09-06T11:13:47.205Z,99852.53
2022-09-06T11:16:19.200Z,99845.75
2022-09-06T11:18:50.489Z,99841.69
2022-09-06T11:21:50.917Z,99846.44
2022-09-06T11:24:26.580Z,99842.09
2022-09-06T11:27:01.931Z,99832.66
2022-09-06T11:29:30.945Z,99834.50
2022-09-06T11:32:16.620Z,99834.69
2022-09-06T11:34:53.088Z,99834.53
2022-09-06T11:37:26.867Z,99829.97
2022-09-06T11:43:19.566Z,99843.56
2022-09-06T11:45:50.364Z,99835.31
2022-09-06T11:49:02.392Z,99815.19
2022-09-06T11:51:38.848Z,99826.28
2022-09-06T11:54:33.447Z,99813.94
2022-09-06T11:57:11.751Z,99798.75
2022-09-06T11:59:52.511Z,99803.41
2022-09-06T12:02:38.338Z,99814.13
2022-09-06T12:05:19.665Z,99800.25
2022-09-06T12:08:24.762Z,99809.44
2022-09-06T12:11:30.348Z,99789.97
2022-09-06T12:14:03.918Z,99812.69
2022-09-06T12:17:28.614Z,99812.59
2022-09-06T12:20:07.117Z,99793.09
2022-09-06T12:23:01.680Z,99789.97
2022-09-06T12:25:56.350Z,99802.19
2022-09-06T12:28:34.769Z,99787.72
2022-09-06T12:31:25.485Z,99789.59
2022-09-06T12:33:54.837Z,99774.28
2022-09-06T12:36:29.793Z,99792.50
2022-09-06T12:39:00.037Z,99772.06
2022-09-06T12:41:29.679Z,99769.25
2022-09-06T12:43:59.906Z,99780.78
2022-09-06T12:46:29.849Z,99784.69
2022-09-06T12:49:08.125Z,99769.13
2022-09-06T12:51:48.837Z,99777.91
2022-09-06T12:54:23.293Z,99760.72
2022-09-06T12:56:54.609Z,99768.22
2022-09-06T12:59:27.354Z,99755.91
2022-09-06T13:02:06.359Z,99726.97
2022-09-06T13:04:39.764Z,99719.59
2022-09-06T13:07:14.188Z,99750.50
2022-09-06T13:09:48.624Z,99739.91
2022-09-06T13:12:27.917Z,99719.59
2022-09-06T13:15:13.314Z,99729.69
2022-09-06T13:17:43.373Z,99732.41
2022-09-06T13:20:15.718Z,99729.25
2022-09-06T13:22:46.135Z,99721.31
2022-09-06T13:25:20.458Z,99733.38
2022-09-06T13:27:51.045Z,99733.22
2022-09-06T13:30:38.062Z,99740.56
2022-09-06T13:33:08.571Z,99725.00
2022-09-06T13:35:41.735Z,99725.59
2022-09-06T13:38:31.888Z,99709.19
2022-09-06T13:41:16.903Z,99709.56
2022-09-06T13:43:48.177Z,99705.34
2022-09-06T13:46:17.276Z,99713.63
2022-09-06T13:48:47.374Z,99719.06
2022-09-06T13:51:15.847Z,99713.50
2022-09-06T13:53:44.358Z,99711.09
2022-09-06T13:56:12.818Z,99707.09
2022-09-06T13:58:41.612Z,99724.53
2022-09-06T14:01:10.467Z,99713.94
2022-09-06T14:03:41.938Z,99720.66
2022-09-06T14:06:12.597Z,99700.19
2022-09-06T14:09:05.769Z,99723.44
2022-09-06T14:11:29.779Z,99720.91
2022-09-06T14:13:58.402Z,99715.38
2022-09-06T14:16:27.202Z,99702.13
2022-09-06T14:18:56.009Z,99715.69
2022-09-06T14:21:26.150Z,99700.09
2022-09-06T14:23:54.662Z,99710.13
2022-09-06T14:26:23.532Z,99687.41
2022-09-06T14:28:52.005Z,99687.63
2022-09-06T14:31:22.195Z,99696.06
2022-09-06T14:33:51.081Z,99669.38
2022-09-06T14:36:20.799Z,99694.00
2022-09-06T14:38:52.212Z,99676.31
2022-09-06T14:41:21.337Z,99681.88
2022-09-06T14:43:51.477Z,99660.78
2022-09-06T14:46:20.596Z,99667.09
2022-09-06T14:48:49.169Z,99668.56
2022-09-06T14:51:21.962Z,99671.84
2022-09-06T14:53:54.011Z,99669.59
2022-09-06T14:56:23.031Z,99637.41
2022-09-06T14:58:51.708Z,99667.16
2022-09-06T15:01:22.344Z,99651.16
2022-09-06T15:03:53.346Z,99635.34
2022-09-06T15:06:22.968Z,99670.03
2022-09-06T15:08:58.422Z,99649.09
2022-09-06T15:11:34.749Z,99647.63
2022-09-06T15:14:04.902Z,99643.13
2022-09-06T15:16:36.641Z,99655.41
2022-09-06T15:19:05.453Z,99663.34
2022-09-06T15:21:34.151Z,99667.22
2022-09-06T15:24:09.730Z,99652.38
2022-09-06T15:26:41.798Z,99624.56
2022-09-06T15:29:10.977Z,99653.16
2022-09-06T15:31:40.049Z,99650.72
2022-09-06T15:34:09.062Z,99633.13
2022-09-06T15:36:37.983Z,99645.94
2022-09-06T15:39:07.995Z,99649.69
2022-09-06T15:41:39.205Z,99645.88
2022-09-06T15:44:10.464Z,99638.75
2022-09-06T15:46:46.761Z,99660.47
2022-09-06T15:49:17.589Z,99639.19
2022-09-06T15:51:46.102Z,99656.41
2022-09-06T15:54:17.426Z,99634.84
2022-09-06T15:56:46.113Z,99657.31
2022-09-06T15:59:17.428Z,99654.03
2022-09-06T16:01:46.913Z,99656.44
2022-09-06T16:04:15.345Z,99644.09
2022-09-06T16:06:43.838Z,99625.34
2022-09-06T16:09:14.493Z,99610.25
2022-09-06T16:11:45.000Z,99600.22
2022-09-06T16:14:19.311Z,99624.19
2022-09-06T16:16:48.351Z,99639.38
2022-09-06T16:19:17.291Z,99607.16
2022-09-06T16:21:45.886Z,99641.22
2022-09-06T16:24:14.919Z,99642.38
2022-09-06T16:26:46.898Z,99637.41
2022-09-06T16:29:16.940Z,99618.84
2022-09-06T16:31:45.614Z,99630.47
2022-09-06T16:34:14.326Z,99632.00
2022-09-06T16:36:42.822Z,99628.00
2022-09-06T16:39:11.769Z,99644.19
2022-09-06T16:41:42.659Z,99625.16
2022-09-06T16:44:16.279Z,99635.81
2022-09-06T16:46:45.586Z,99633.19
2022-09-06T16:49:15.260Z,99638.50
2022-09-06T16:51:44.097Z,99643.19
2022-09-06T16:54:13.085Z,99633.06
2022-09-06T16:56:41.561Z,99636.38
2022-09-06T16:59:10.552Z,99648.41
2022-09-06T17:01:42.041Z,99642.41
2022-09-06T17:04:10.643Z,99660.47
2022-09-06T17:06:44.415Z,99642.84
2022-09-06T17:09:14.071Z,99648.03
2022-09-06T17:11:42.879Z,99644.03
2022-09-06T17:14:15.497Z,99652.78
2022-09-06T17:17:03.556Z,99657.75
2022-09-06T17:19:33.736Z,99641.25
2022-09-06T17:22:22.778Z,99640.88
2022-09-06T17:24:57.762Z,99651.09
2022-09-06T17:27:46.029Z,99642.81
2022-09-06T17:30:23.080Z,99641.78
2022-09-06T17:33:04.982Z,99635.47
2022-09-06T17:35:34.639Z,99652.06
2022-09-06T17:38:06.600Z,99658.78
2022-09-06T17:40:36.567Z,99663.38
2022-09-06T17:43:11.791Z,99658.53
2022-09-06T17:45:44.472Z,99660.63
2022-09-06T17:48:17.129Z,99631.47
2022-09-06T17:50:47.814Z,99645.31
2022-09-06T17:53:22.765Z,99654.56
2022-09-06T17:55:58.851Z,99652.97
2022-09-06T17:58:31.076Z,99663.50
2022-09-06T18:01:06.041Z,99665.47
2022-09-06T18:03:43.893Z,99669.72
2022-09-06T18:06:14.991Z,99668.78
2022-09-06T18:08:44.969Z,99637.41
2022-09-06T18:11:15.037Z,99663.53
2022-09-06T18:13:43.557Z,99663.25
2022-09-06T18:16:12.629Z,99642.78
2022-09-06T18:18:42.515Z,99651.06
2022-09-06T18:21:10.976Z,99651.06
2022-09-06T18:23:39.459Z,99680.78
2022-09-06T18:26:08.898Z,99658.91
2022-09-06T18:28:38.109Z,99668.66
2022-09-06T18:31:08.236Z,99630.66
2022-09-06T18:33:37.011Z,99647.84
2022-09-06T18:36:07.864Z,99629.44
2022-09-06T18:38:36.355Z,99630.13
2022-09-06T18:41:06.488Z,99648.22
2022-09-06T18:43:36.324Z,99617.81
2022-09-06T18:46:05.840Z,99663.00
2022-09-06T18:48:34.509Z,99656.38
2022-09-06T18:51:06.951Z,99650.44
2022-09-06T18:53:35.389Z,99642.84
2022-09-06T18:56:04.158Z,99631.25
2022-09-06T18:58:32.745Z,99658.03
2022-09-06T19:01:03.540Z,99663.53
2022-09-06T19:03:32.542Z,99640.56
2022-09-06T19:06:03.928Z,99653.22
2022-09-06T19:11:16.958Z,99648.44
2022-09-06T19:13:46.866Z,99639.38
2022-09-06T19:16:15.934Z,99651.00
2022-09-06T19:18:44.336Z,99635.59
2022-09-06T19:21:14.392Z,99642.69
2022-09-06T19:23:46.049Z,99649.13
2022-09-06T19:26:17.014Z,99627.81
2022-09-06T19:28:49.575Z,99640.19
2022-09-06T19:31:18.525Z,99638.09
2022-09-06T19:33:48.216Z,99643.72
2022-09-06T19:36:16.971Z,99617.91
2022-09-06T19:39:02.929Z,99620.28
2022-09-06T19:41:33.086Z,99619.59
2022-09-06T19:44:01.748Z,99600.03
2022-09-06T19:46:30.532Z,99629.94
2022-09-06T19:49:00.512Z,99621.19
2022-09-06T19:51:29.166Z,99603.88
2022-09-06T19:54:00.063Z,99581.38
2022-09-06T19:56:31.607Z,99613.06
2022-09-06T19:59:01.316Z,99585.97
2022-09-06T20:01:31.244Z,99596.97
2022-09-06T20:04:00.179Z,99573.63
2022-09-06T20:06:28.727Z,99582.63
2022-09-06T20:08:59.411Z,99593.19
2022-09-06T20:11:29.491Z,99581.63
2022-09-06T20:13:57.962Z,99570.03
2022-09-06T20:16:26.622Z,99556.81
2022-09-06T20:18:56.050Z,99567.41
2022-09-06T20:21:24.560Z,99563.06
2022-09-06T20:23:54.084Z,99572.31
2022-09-06T20:26:24.888Z,99567.66
2022-09-06T20:28:56.701Z,99576.91
2022-09-06T20:31:25.404Z,99568.47
2022-09-06T20:33:53.977Z,99567.94
2022-09-06T20:36:22.488Z,99548.78
2022-09-06T20:38:50.936Z,99564.66
2022-09-06T20:41:20.668Z,99563.59
2022-09-06T20:43:53.647Z,99552.16
2022-09-06T20:46:23.393Z,99577.13
2022-09-06T20:48:53.346Z,99573.22
2022-09-06T20:51:23.385Z,99575.91
2022-09-06T20:53:54.987Z,99554.56
2022-09-06T20:56:24.982Z,99581.63
2022-09-06T20:58:56.467Z,99588.72
2022-09-06T21:01:35.541Z,99584.94
2022-09-06T21:04:08.365Z,99557.19
2022-09-06T21:06:39.145Z,99584.41
2022-09-06T21:09:09.853Z,99564.41
2022-09-06T21:11:38.581Z,99576.97
2022-09-06T21:14:09.742Z,99575.69
2022-09-06T21:16:47.933Z,99541.66
2022-09-06T21:19:36.661Z,99545.28
2022-09-06T21:22:05.177Z,99567.56
2022-09-06T21:24:50.646Z,99556.38
2022-09-06T21:27:19.838Z,99566.75
2022-09-06T21:29:49.805Z,99555.88
2022-09-06T21:32:18.290Z,99554.75
2022-09-06T21:34:56.335Z,99553.25
2022-09-06T21:37:40.318Z,99566.75
2022-09-06T21:40:11.688Z,99567.56
2022-09-06T21:42:40.176Z,99560.69
2022-09-06T21:45:11.420Z,99563.44
2022-09-06T21:47:40.743Z,99563.75
2022-09-06T21:50:33.592Z,99575.38
2022-09-06T21:53:39.795Z,99567.03
2022-09-06T22:03:23.253Z,99558.44
2022-09-06T22:06:08.094Z,99586.88
2022-09-06T22:09:13.969Z,99584.94
2022-09-06T22:12:05.534Z,99583.88
2022-09-06T22:14:59.751Z,99574.69
2022-09-06T22:18:34.763Z,99562.44
2022-09-06T22:21:08.427Z,99570.91
2022-09-06T22:23:59.960Z,99570.53
2022-09-06T22:27:03.839Z,99569.84
2022-09-06T22:32:50.566Z,99557.47
2022-09-06T22:36:08.465Z,99538.28
2022-09-06T22:38:57.841Z,99542.44
2022-09-06T22:41:31.667Z,99529.63
2022-09-06T22:44:09.369Z,99555.44
2022-09-06T22:47:00.036Z,99540.69
2022-09-06T22:49:53.332Z,99547.69
2022-09-06T22:52:29.504Z,99539.13
2022-09-06T22:55:01.045Z,99549.06
2022-09-06T22:57:29.456Z,99515.91
2022-09-06T22:59:58.068Z,99542.09
2022-09-06T23:02:26.717Z,99544.84
2022-09-06T23:04:56.115Z,99529.72
2022-09-06T23:07:24.642Z,99516.44
2022-09-06T23:09:54.636Z,99508.41
2022-09-06T23:12:23.136Z,99522.66
2022-09-06T23:14:51.850Z,99530.25
2022-09-06T23:17:20.220Z,99531.06
2022-09-06T23:19:48.719Z,99520.44
2022-09-06T23:22:17.257Z,99497.38
2022-09-06T23:24:46.270Z,99522.88
2022-09-06T23:27:16.178Z,99511.47
2022-09-06T23:29:46.038Z,99482.16
2022-09-06T23:32:14.494Z,99507.00
2022-09-06T23:34:43.868Z,99487.28
2022-09-06T23:37:15.203Z,99508.16
2022-09-06T23:39:47.368Z,99516.03
2022-09-06T23:42:19.099Z,99534.94
2022-09-06T23:44:47.600Z,99513.56
2022-09-06T23:47:16.025Z,99523.00
2022-09-06T23:49:45.317Z,99528.63
2022-09-06T23:52:13.735Z,99520.63
2022-09-06T23:54:42.161Z,99513.75
2022-09-06T23:57:10.601Z,99504.09
2022-09-06T23:59:46.100Z,99533.91
